Time;durP1;ratioP1;P1;durP2;ratioP2;P2;SDS_P1;SDS_P2;PMS_P1;PMS_P2;Temp;Humidity;BMP_temperature;BMP_pressure;BME280_temperature;BME280_humidity;BME280_pressure;Samples;Min_cycle;Max_cycle;Signal;HPM_P1;HPM_P2
2022/10/25 00:00:06;;;;;;;32.47;7.93;;;;;;;11.95;100.00;101056.31;5072763;28;20059;-48
2022/10/25 00:02:35;;;;;;;31.48;7.82;;;;;;;11.95;100.00;101049.47;5072079;28;20349;-48
2022/10/25 00:05:00;;;;;;;28.90;7.57;;;;;;;11.95;100.00;101049.47;5072838;28;20021;-47
2022/10/25 00:07:26;;;;;;;26.67;7.63;;;;;;;11.97;100.00;101057.28;5072742;28;20020;-46
2022/10/25 00:09:51;;;;;;;31.20;7.38;;;;;;;11.96;100.00;101051.22;5071284;28;20031;-45
2022/10/25 00:12:17;;;;;;;32.53;6.75;;;;;;;11.95;100.00;101053.75;5072421;28;20038;-45
2022/10/25 00:14:42;;;;;;;34.25;7.95;;;;;;;11.93;100.00;101066.63;5072715;28;20036;-48
2022/10/25 00:17:08;;;;;;;28.15;7.43;;;;;;;11.95;100.00;101064.06;5071617;28;20486;-47
2022/10/25 00:19:33;;;;;;;39.10;7.57;;;;;;;11.96;100.00;101071.03;5072700;28;20177;-45
2022/10/25 00:21:58;;;;;;;33.58;7.50;;;;;;;11.97;100.00;101068.47;5072481;28;20478;-44
2022/10/25 00:24:24;;;;;;;24.80;6.97;;;;;;;11.96;100.00;101068.44;5072037;28;20112;-45
2022/10/25 00:26:49;;;;;;;36.70;8.43;;;;;;;11.98;100.00;101069.34;5072576;28;20107;-47
2022/10/25 00:29:15;;;;;;;29.70;7.63;;;;;;;12.00;100.00;101070.28;5072106;28;20115;-47
2022/10/25 00:31:40;;;;;;;23.70;6.65;;;;;;;11.98;100.00;101069.34;5071992;28;20020;-49
2022/10/25 00:34:06;;;;;;;30.25;7.43;;;;;;;11.99;100.00;101071.09;5072516;28;20433;-47
2022/10/25 00:36:31;;;;;;;24.02;6.88;;;;;;;12.04;100.00;101069.50;5072566;28;20024;-46
2022/10/25 00:38:57;;;;;;;32.03;7.43;;;;;;;12.06;100.00;101072.13;5071718;28;20024;-48
2022/10/25 00:41:25;;;;;;;35.28;7.88;;;;;;;12.12;100.00;101080.94;5072560;28;20040;-48
2022/10/25 00:44:15;;;;;;;36.45;7.95;;;;;;;12.18;100.00;101080.22;5072054;28;20416;-45
2022/10/25 00:46:41;;;;;;;32.53;7.45;;;;;;;12.21;100.00;101077.72;5072258;28;20028;-47
2022/10/25 00:49:20;;;;;;;25.13;6.07;;;;;;;12.25;100.00;101078.66;5072303;28;20078;-48
2022/10/25 00:51:50;;;;;;;37.67;6.72;;;;;;;12.27;100.00;101080.47;5071745;28;20036;-47
2022/10/25 00:54:21;;;;;;;33.30;7.95;;;;;;;12.34;100.00;101078.91;5072095;28;20468;-48
2022/10/25 00:56:50;;;;;;;23.65;6.78;;;;;;;12.37;100.00;101085.88;5072357;28;20036;-47
2022/10/25 00:59:19;;;;;;;32.88;7.05;;;;;;;12.40;100.00;101089.41;5071145;28;20377;-47
2022/10/25 01:01:44;;;;;;;34.53;7.57;;;;;;;12.42;100.00;101087.75;5072271;28;20452;-49
2022/10/25 01:04:13;;;;;;;29.75;6.68;;;;;;;12.45;100.00;101087.81;5071832;28;20032;-47
2022/10/25 01:06:46;;;;;;;29.08;6.80;;;;;;;12.48;100.00;101082.72;5071720;28;20111;-47
2022/10/25 01:09:15;;;;;;;40.30;6.50;;;;;;;12.51;100.00;101085.41;5071905;28;20548;-45
2022/10/25 01:11:41;;;;;;;26.05;5.70;;;;;;;12.56;100.00;101079.47;5072194;28;20029;-49
2022/10/25 01:14:09;;;;;;;26.90;6.20;;;;;;;12.55;100.00;101088.06;5071610;28;20078;-48
2022/10/25 01:16:47;;;;;;;31.50;5.97;;;;;;;12.54;100.00;101097.53;5072206;28;20407;-46
2022/10/25 01:19:18;;;;;;;32.88;6.03;;;;;;;12.54;100.00;101092.34;5071290;28;20028;-44
2022/10/25 01:21:48;;;;;;;34.38;6.00;;;;;;;12.46;100.00;101088.69;5073173;28;20464;-47
2022/10/25 01:24:41;;;;;;;32.28;6.45;;;;;;;12.45;100.00;101093.00;5075672;28;20033;-45
2022/10/25 01:28:02;;;;;;;31.40;6.65;;;;;;;12.46;100.00;101094.75;5074606;28;20533;-46
2022/10/25 01:30:48;;;;;;;25.73;6.63;;;;;;;12.44;100.00;101096.41;4974784;28;20550;-48
2022/10/25 01:33:23;;;;;;;27.15;5.75;;;;;;;12.38;100.00;101101.41;4973842;28;20039;-47
2022/10/25 01:35:57;;;;;;;25.63;6.32;;;;;;;12.35;100.00;101102.19;5054002;28;20047;-47
2022/10/25 01:38:32;;;;;;;28.60;6.35;;;;;;;12.37;100.00;101112.59;5075464;28;20429;-47
2022/10/25 01:41:35;;;;;;;22.38;6.03;;;;;;;12.36;100.00;101108.28;5074656;28;20025;-47
2022/10/25 01:44:23;;;;;;;31.08;6.38;;;;;;;12.41;100.00;101118.72;5075064;28;20057;-49
2022/10/25 01:47:09;;;;;;;30.00;5.40;;;;;;;12.43;100.00;101115.31;5075201;28;20036;-47
2022/10/25 01:49:47;;;;;;;26.80;5.22;;;;;;;12.48;100.00;101118.91;5074635;28;20456;-48
2022/10/25 01:52:14;;;;;;;20.25;5.30;;;;;;;12.48;100.00;101103.41;5075134;28;20021;-47
2022/10/25 01:54:40;;;;;;;25.38;5.30;;;;;;;12.45;100.00;101103.34;5074424;28;20090;-47
2022/10/25 01:57:33;;;;;;;29.42;5.28;;;;;;;12.44;100.00;101116.22;5074864;28;20388;-48
2022/10/25 02:00:09;;;;;;;23.73;5.72;;;;;;;12.41;100.00;101119.59;5075113;28;20027;-48
2022/10/25 02:02:51;;;;;;;24.23;5.70;;;;;;;12.38;100.00;101110.88;5074365;28;20016;-46
2022/10/25 02:05:32;;;;;;;32.35;5.32;;;;;;;12.34;100.00;101117.69;5074858;28;20039;-48
2022/10/25 02:08:12;;;;;;;26.25;6.30;;;;;;;12.31;100.00;101115.03;5074438;28;20491;-48
2022/10/25 02:10:40;;;;;;;33.17;5.80;;;;;;;12.31;100.00;101115.03;5074416;28;20029;-47
2022/10/25 02:13:25;;;;;;;32.40;5.57;;;;;;;12.36;100.00;101123.78;5074644;28;20093;-48
2022/10/25 02:16:04;;;;;;;28.45;5.15;;;;;;;12.38;100.00;101118.63;5074010;28;20028;-47
2022/10/25 02:18:34;;;;;;;28.50;5.22;;;;;;;12.42;100.00;101139.47;5074930;28;20078;-48
2022/10/25 02:21:01;;;;;;;24.77;5.40;;;;;;;12.47;100.00;101122.34;5074376;28;20384;-48
2022/10/25 02:23:28;;;;;;;22.80;4.75;;;;;;;12.45;100.00;101124.00;5073977;28;20021;-47
2022/10/25 02:25:55;;;;;;;31.13;4.87;;;;;;;12.38;100.00;101127.25;5074767;28;20025;-47
2022/10/25 02:28:24;;;;;;;23.08;5.10;;;;;;;12.33;100.00;101123.66;5074390;28;20380;-46
2022/10/25 02:30:52;;;;;;;25.52;5.13;;;;;;;12.30;100.00;101126.19;5074128;28;20032;-47
2022/10/25 02:33:18;;;;;;;26.52;5.30;;;;;;;12.28;100.00;101143.38;5073517;28;20108;-47
2022/10/25 02:35:43;;;;;;;32.67;6.07;;;;;;;12.26;100.00;101132.97;5074328;28;20099;-48
2022/10/25 02:38:08;;;;;;;23.15;5.07;;;;;;;12.24;100.00;101132.06;5073667;28;20383;-47
2022/10/25 02:40:35;;;;;;;30.92;5.50;;;;;;;12.23;100.00;101148.41;5074369;28;20039;-48
2022/10/25 02:43:00;;;;;;;25.95;5.70;;;;;;;12.23;100.00;101144.97;5073601;28;20028;-48
2022/10/25 02:45:25;;;;;;;25.75;5.97;;;;;;;12.21;100.00;101144.91;5073996;28;20043;-47
2022/10/25 02:47:51;;;;;;;26.55;5.53;;;;;;;12.20;100.00;101140.59;5074410;28;20371;-47
2022/10/25 02:50:16;;;;;;;28.55;5.53;;;;;;;12.13;100.00;101134.34;5073684;28;20094;-49
2022/10/25 02:52:41;;;;;;;29.58;6.00;;;;;;;12.10;100.00;101142.03;5073666;28;20044;-48
2022/10/25 02:55:07;;;;;;;26.63;6.63;;;;;;;12.09;100.00;101150.59;5073903;28;20028;-48
2022/10/25 02:57:34;;;;;;;24.90;5.97;;;;;;;12.05;100.00;101143.59;5073775;28;20095;-48
2022/10/25 02:59:59;;;;;;;29.33;5.72;;;;;;;12.07;100.00;101143.63;5073536;28;20040;-46
2022/10/25 03:02:24;;;;;;;30.08;6.35;;;;;;;12.06;100.00;101155.69;5074017;28;20021;-48
2022/10/25 03:04:50;;;;;;;28.95;6.35;;;;;;;12.06;100.00;101154.81;5073000;28;20108;-46
2022/10/25 03:07:15;;;;;;;27.23;6.47;;;;;;;12.06;100.00;101154.81;5073696;28;20036;-45
2022/10/25 03:09:40;;;;;;;21.25;5.93;;;;;;;12.05;100.00;101161.69;5073739;28;20028;-46
2022/10/25 03:12:06;;;;;;;34.60;6.30;;;;;;;12.04;100.00;101152.19;5072581;28;20025;-47
2022/10/25 03:14:31;;;;;;;22.35;5.90;;;;;;;12.02;100.00;101148.69;5073936;28;20021;-46
2022/10/25 03:16:56;;;;;;;25.08;6.10;;;;;;;11.97;100.00;101150.28;5073584;28;20438;-45
2022/10/25 03:19:21;;;;;;;25.63;5.78;;;;;;;11.92;100.00;101155.25;5072773;28;20162;-47
2022/10/25 03:21:47;;;;;;;23.98;5.40;;;;;;;11.91;100.00;101168.13;5073722;28;20047;-46
2022/10/25 03:24:12;;;;;;;22.98;6.28;;;;;;;11.83;100.00;101158.44;5073148;28;20021;-48
2022/10/25 03:26:37;;;;;;;26.75;6.82;;;;;;;11.84;100.00;101161.91;5072564;28;20039;-47
2022/10/25 03:29:02;;;;;;;23.50;6.50;;;;;;;11.82;100.00;101172.19;5073392;28;20179;-48
2022/10/25 03:31:28;;;;;;;23.58;6.43;;;;;;;11.80;100.00;101172.97;5073396;28;20380;-46
2022/10/25 03:33:53;;;;;;;28.15;6.28;;;;;;;11.80;100.00;101168.69;5072505;28;20020;-45
2022/10/25 03:36:18;;;;;;;25.77;6.93;;;;;;;11.77;100.00;101184.06;5073044;28;20024;-47
2022/10/25 03:38:43;;;;;;;26.17;6.30;;;;;;;11.77;100.00;101186.66;5073037;28;20132;-48
2022/10/25 03:41:09;;;;;;;25.77;6.28;;;;;;;11.71;100.00;101183.91;5072330;28;20033;-49
2022/10/25 03:43:34;;;;;;;25.73;6.35;;;;;;;11.71;100.00;101191.66;5073186;28;20044;-48
2022/10/25 03:45:59;;;;;;;24.45;6.28;;;;;;;11.69;100.00;101190.72;5072469;28;20036;-48
2022/10/25 03:48:25;;;;;;;24.52;6.95;;;;;;;11.65;100.00;101189.75;5072580;28;20031;-47
2022/10/25 03:50:52;;;;;;;26.67;6.63;;;;;;;11.62;100.00;101192.25;5073107;28;20032;-47
2022/10/25 03:53:17;;;;;;;24.13;6.63;;;;;;;11.61;100.00;101187.03;5072652;28;20035;-47
2022/10/25 03:55:42;;;;;;;25.08;6.40;;;;;;;11.58;100.00;101197.25;5072295;28;20024;-47
2022/10/25 03:58:08;;;;;;;28.08;7.40;;;;;;;11.57;100.00;101198.09;5072892;28;20518;-46
2022/10/25 04:00:33;;;;;;;22.02;7.13;;;;;;;11.58;100.00;101199.84;5073069;28;20021;-49
2022/10/25 04:03:00;;;;;;;21.27;6.30;;;;;;;11.56;100.00;101199.81;5072316;28;20021;-44
2022/10/25 04:05:25;;;;;;;28.08;6.70;;;;;;;11.57;100.00;101211.00;5073085;28;20021;-48
2022/10/25 04:07:51;;;;;;;26.75;6.95;;;;;;;11.58;100.00;101207.59;5072713;28;20030;-49
2022/10/25 04:10:20;;;;;;;27.60;7.03;;;;;;;11.60;100.00;101206.81;5072039;28;20028;-48
2022/10/25 04:12:46;;;;;;;27.77;6.50;;;;;;;11.66;100.00;101211.31;5072824;28;20078;-47
2022/10/25 04:15:12;;;;;;;20.67;5.80;;;;;;;11.61;100.00;101205.13;5071893;28;20025;-48
2022/10/25 04:17:38;;;;;;;22.52;6.22;;;;;;;11.60;100.00;101203.34;5072921;28;20039;-47
2022/10/25 04:20:04;;;;;;;31.30;6.40;;;;;;;11.52;100.00;101206.56;5072535;28;20024;-47
2022/10/25 04:22:29;;;;;;;20.27;6.22;;;;;;;11.52;100.00;101209.16;5071905;28;20434;-46
2022/10/25 04:24:54;;;;;;;22.20;6.30;;;;;;;11.52;100.00;101216.88;5072449;28;20107;-48
2022/10/25 04:27:20;;;;;;;24.80;6.30;;;;;;;11.49;100.00;101214.22;5072780;28;20423;-47
2022/10/25 04:29:45;;;;;;;30.45;6.88;;;;;;;11.46;100.00;101219.28;5071953;28;20059;-48
2022/10/25 04:32:10;;;;;;;26.83;6.88;;;;;;;11.46;100.00;101227.00;5072566;28;20422;-48
2022/10/25 04:34:36;;;;;;;20.20;6.65;;;;;;;11.41;100.00;101220.81;5073023;28;20031;-46
2022/10/25 04:37:02;;;;;;;32.38;7.75;;;;;;;11.42;100.00;101226.88;5071604;28;20020;-47
2022/10/25 04:39:27;;;;;;;25.63;7.70;;;;;;;11.44;100.00;101220.06;5072534;28;20048;-47
2022/10/25 04:41:52;;;;;;;32.20;7.35;;;;;;;11.43;100.00;101218.31;5072621;28;20464;-47
2022/10/25 04:44:18;;;;;;;24.35;7.13;;;;;;;11.37;100.00;101224.13;5071555;28;20400;-48
2022/10/25 04:46:43;;;;;;;24.77;7.95;;;;;;;11.35;100.00;101220.66;5072408;28;20017;-46
2022/10/25 04:49:11;;;;;;;26.35;7.90;;;;;;;11.36;100.00;101230.13;5072014;28;20065;-48
2022/10/25 04:51:37;;;;;;;23.42;7.63;;;;;;;11.33;100.00;101225.75;5071813;28;20040;-48
2022/10/25 04:54:02;;;;;;;28.92;8.68;;;;;;;11.34;100.00;101218.91;5072188;28;20108;-46
2022/10/25 04:56:28;;;;;;;29.83;8.50;;;;;;;11.27;100.00;101224.66;5072778;28;20427;-46
2022/10/25 04:58:53;;;;;;;26.35;7.82;;;;;;;11.26;100.00;101222.91;5076004;28;20048;-44
2022/10/25 05:01:19;;;;;;;27.55;8.85;;;;;;;11.28;100.00;101229.00;5075894;28;20024;-45
2022/10/25 05:03:45;;;;;;;28.75;9.18;;;;;;;11.24;100.00;101233.19;5076057;28;20025;-46
2022/10/25 05:06:13;;;;;;;27.67;9.07;;;;;;;11.26;100.00;101236.72;5075409;28;20029;-48
2022/10/25 05:08:40;;;;;;;26.50;9.32;;;;;;;11.25;100.00;101234.09;5076011;28;20437;-47
2022/10/25 05:11:08;;;;;;;31.70;8.38;;;;;;;11.20;100.00;101239.94;5075735;28;20035;-47
2022/10/25 05:13:34;;;;;;;32.03;9.45;;;;;;;11.26;100.00;101240.97;5075595;28;20055;-48
2022/10/25 05:16:00;;;;;;;33.33;9.32;;;;;;;11.26;100.00;101246.13;5076067;28;20028;-48
2022/10/25 05:18:25;;;;;;;32.45;8.57;;;;;;;11.23;100.00;101257.22;5075384;28;20026;-48
2022/10/25 05:20:55;;;;;;;27.02;9.25;;;;;;;11.20;100.00;101251.97;5075994;28;20375;-47
2022/10/25 05:23:22;;;;;;;35.25;9.13;;;;;;;11.18;100.00;101254.50;5075819;28;20476;-49
2022/10/25 05:25:48;;;;;;;29.02;8.15;;;;;;;11.18;100.00;101254.50;5074904;28;20554;-48
2022/10/25 05:28:14;;;;;;;29.20;8.75;;;;;;;11.13;100.00;101261.22;5075654;28;20025;-46
2022/10/25 05:30:42;;;;;;;28.08;8.27;;;;;;;11.12;100.00;101264.63;5075570;28;20032;-46
2022/10/25 05:33:08;;;;;;;26.25;8.48;;;;;;;11.12;100.00;101264.63;5074639;28;20025;-48
2022/10/25 05:35:34;;;;;;;25.02;8.40;;;;;;;11.10;100.00;101263.69;5075628;28;20028;-48
2022/10/25 05:38:00;;;;;;;33.15;8.63;;;;;;;11.10;100.00;101273.13;5074972;28;20426;-49
2022/10/25 05:40:26;;;;;;;36.40;8.88;;;;;;;11.11;100.00;101268.00;5075147;28;20032;-48
2022/10/25 05:42:52;;;;;;;24.27;8.50;;;;;;;11.13;100.00;101265.47;5075410;28;20444;-48
2022/10/25 05:45:18;;;;;;;27.25;7.75;;;;;;;11.10;100.00;101271.41;5075115;28;20024;-48
2022/10/25 05:47:43;;;;;;;27.10;8.02;;;;;;;11.11;100.00;101278.34;5074901;28;20085;-47
2022/10/25 05:50:09;;;;;;;26.65;8.18;;;;;;;11.05;100.00;101278.13;5074996;28;20086;-48
2022/10/25 05:52:34;;;;;;;36.85;8.60;;;;;;;11.09;100.00;101285.16;5074930;28;20039;-47
2022/10/25 05:54:59;;;;;;;28.58;8.25;;;;;;;11.08;100.00;101278.25;5074529;28;20105;-45
2022/10/25 05:57:24;;;;;;;28.20;8.27;;;;;;;11.09;100.00;101289.44;5075541;28;20028;-48
2022/10/25 05:59:50;;;;;;;24.83;8.75;;;;;;;11.10;100.00;101291.19;5075195;28;20024;-47
2022/10/25 06:02:15;;;;;;;34.60;8.98;;;;;;;11.12;100.00;101289.56;5074430;28;20032;-48
2022/10/25 06:04:40;;;;;;;31.40;9.55;;;;;;;11.13;100.00;101297.34;5075102;28;20047;-49
2022/10/25 06:07:05;;;;;;;34.22;9.40;;;;;;;11.13;100.00;101305.06;5074376;28;20025;-47
2022/10/25 06:09:31;;;;;;;30.08;9.93;;;;;;;11.16;100.00;101302.59;5073374;28;20364;-47
2022/10/25 06:11:56;;;;;;;29.77;9.48;;;;;;;11.12;100.00;101305.03;5074780;28;20017;-47
2022/10/25 06:14:21;;;;;;;33.33;10.43;;;;;;;11.11;100.00;101309.28;5074649;28;20029;-48
2022/10/25 06:16:46;;;;;;;28.98;11.27;;;;;;;11.11;100.00;101306.72;5074454;28;20027;-47
2022/10/25 06:19:12;;;;;;;32.42;12.60;;;;;;;11.15;100.00;101305.97;5074484;28;20048;-45
2022/10/25 06:21:37;;;;;;;40.03;12.75;;;;;;;11.17;100.00;101313.81;5073870;28;20404;-48
2022/10/25 06:24:03;;;;;;;33.03;12.40;;;;;;;11.14;100.00;101322.31;5074281;28;20032;-48
2022/10/25 06:26:29;;;;;;;32.05;13.30;;;;;;;11.12;100.00;101330.81;5074764;28;20488;-47
2022/10/25 06:29:00;;;;;;;38.65;14.70;;;;;;;11.10;100.00;101327.31;5073889;28;20102;-47
2022/10/25 06:31:27;;;;;;;33.30;13.15;;;;;;;11.11;100.00;101329.06;5074295;28;20035;-48
2022/10/25 06:33:52;;;;;;;33.30;14.17;;;;;;;11.11;100.00;101334.22;5074559;28;20028;-45
2022/10/25 06:36:22;;;;;;;37.03;14.05;;;;;;;11.08;100.00;101335.00;5073453;28;20107;-47
2022/10/25 06:38:48;;;;;;;33.95;15.20;;;;;;;11.07;100.00;101338.38;5074416;28;20381;-47
2022/10/25 06:41:24;;;;;;;41.35;15.10;;;;;;;11.10;100.00;101346.22;5073863;28;20756;-48
2022/10/25 06:43:50;;;;;;;36.55;14.95;;;;;;;11.11;100.00;101345.41;5073725;28;20079;-48
2022/10/25 06:46:31;;;;;;;45.72;15.35;;;;;;;11.16;100.00;101351.59;5074124;28;20028;-46
2022/10/25 06:48:58;;;;;;;46.28;15.90;;;;;;;11.17;100.00;101357.66;5073719;28;20020;-45
2022/10/25 06:51:25;;;;;;;35.75;15.15;;;;;;;11.18;100.00;101352.56;5073708;28;20068;-48
2022/10/25 06:53:54;;;;;;;35.80;15.95;;;;;;;11.24;100.00;101353.59;5074236;28;20078;-48
2022/10/25 06:56:20;;;;;;;44.67;16.67;;;;;;;11.26;100.00;101355.41;5073768;28;20039;-49
2022/10/25 06:58:45;;;;;;;42.78;16.17;;;;;;;11.25;100.00;101353.63;5073571;28;20036;-49
2022/10/25 07:01:12;;;;;;;38.17;15.32;;;;;;;11.26;100.00;101362.25;5073738;28;20016;-48
2022/10/25 07:03:38;;;;;;;38.53;16.00;;;;;;;11.26;100.00;101360.56;5073915;28;20024;-48
2022/10/25 07:06:06;;;;;;;38.78;15.52;;;;;;;11.22;100.00;101363.88;5073220;28;20031;-48
2022/10/25 07:08:33;;;;;;;49.47;18.38;;;;;;;11.26;100.00;101362.25;5073977;28;20039;-47
2022/10/25 07:10:58;;;;;;;39.05;16.98;;;;;;;11.30;100.00;101371.88;5072672;28;20506;-46
2022/10/25 07:13:24;;;;;;;49.20;17.73;;;;;;;11.34;100.00;101369.44;5073749;28;20028;-49
2022/10/25 07:15:49;;;;;;;45.53;17.63;;;;;;;11.39;100.00;101377.34;5073645;28;20063;-46
2022/10/25 07:18:15;;;;;;;38.63;17.02;;;;;;;11.43;100.00;101381.78;5072807;28;20040;-48
2022/10/25 07:20:45;;;;;;;44.42;18.20;;;;;;;11.44;100.00;101378.38;5073404;28;20029;-48
2022/10/25 07:23:11;;;;;;;49.20;19.05;;;;;;;11.45;100.00;101382.72;5073083;28;20482;-46
2022/10/25 07:25:36;;;;;;;42.80;17.67;;;;;;;11.48;100.00;101382.81;5073122;28;20016;-47
2022/10/25 07:28:01;;;;;;;45.75;17.38;;;;;;;11.51;100.00;101384.63;5073267;28;20032;-47
2022/10/25 07:30:26;;;;;;;42.50;18.05;;;;;;;11.57;100.00;101389.13;5073045;28;20024;-47
2022/10/25 07:32:52;;;;;;;47.40;18.00;;;;;;;11.60;100.00;101387.53;5073050;28;20032;-48
2022/10/25 07:35:17;;;;;;;43.47;16.95;;;;;;;11.63;100.00;101391.91;5073085;28;20110;-47
2022/10/25 07:37:42;;;;;;;40.92;16.80;;;;;;;11.67;100.00;101398.94;5073147;28;20464;-47
2022/10/25 07:40:08;;;;;;;42.15;17.30;;;;;;;11.74;100.00;101403.50;5072468;28;20036;-47
2022/10/25 07:42:33;;;;;;;41.88;16.38;;;;;;;11.83;100.00;101400.34;5073229;28;20017;-47
2022/10/25 07:44:58;;;;;;;42.50;16.55;;;;;;;11.86;100.00;101390.09;5072394;28;20101;-48
2022/10/25 07:47:24;;;;;;;42.22;15.48;;;;;;;11.92;100.00;101404.94;5072809;28;20440;-46
2022/10/25 07:49:49;;;;;;;38.15;16.00;;;;;;;11.95;100.00;101402.44;5073350;28;20032;-47
2022/10/25 07:52:14;;;;;;;34.33;15.35;;;;;;;12.00;100.00;101398.34;5072797;28;20490;-47
2022/10/25 07:54:39;;;;;;;36.33;15.60;;;;;;;12.04;100.00;101397.59;5072728;28;20020;-46
2022/10/25 07:57:05;;;;;;;39.25;15.40;;;;;;;12.07;100.00;101408.06;5072795;28;20029;-48
2022/10/25 07:59:31;;;;;;;39.92;16.05;;;;;;;12.11;100.00;101407.31;5072762;28;20021;-48
2022/10/25 08:01:56;;;;;;;39.40;15.30;;;;;;;12.17;100.00;101412.69;5072329;28;20111;-47
2022/10/25 08:04:21;;;;;;;35.00;15.55;;;;;;;12.25;100.00;101412.03;5073130;28;20021;-45
2022/10/25 08:06:46;;;;;;;34.95;15.50;;;;;;;12.31;100.00;101428.63;5072588;28;20387;-47
2022/10/25 08:09:12;;;;;;;39.33;16.17;;;;;;;12.34;100.00;101420.09;5072190;28;20468;-48
2022/10/25 08:11:37;;;;;;;34.75;15.77;;;;;;;12.43;100.00;101420.38;5072955;28;20048;-48
2022/10/25 08:14:02;;;;;;;35.72;15.50;;;;;;;12.52;100.00;101420.69;5072359;28;20476;-48
2022/10/25 08:16:28;;;;;;;35.20;15.45;;;;;;;12.56;100.00;101425.94;5072236;28;20036;-48
2022/10/25 08:18:53;;;;;;;39.58;15.82;;;;;;;12.64;100.00;101427.03;5072942;28;20024;-47
2022/10/25 08:21:18;;;;;;;44.28;16.27;;;;;;;12.65;100.00;101423.63;5071898;28;20055;-48
2022/10/25 08:23:44;;;;;;;36.30;16.65;;;;;;;12.70;100.00;101427.22;5072852;28;20097;-48
2022/10/25 08:26:09;;;;;;;38.67;14.18;;;;;;;12.77;100.00;101429.16;5072385;28;20036;-48
2022/10/25 08:28:34;;;;;;;33.85;14.43;;;;;;;12.79;100.00;101429.22;5071881;28;20392;-48
2022/10/25 08:30:59;;;;;;;36.50;14.73;;;;;;;12.79;100.00;101434.38;5072267;28;20028;-47
2022/10/25 08:33:25;;;;;;;30.42;14.07;;;;;;;12.75;100.00;101436.00;5076703;28;20024;-46
2022/10/25 08:35:50;;;;;;;33.47;14.48;;;;;;;12.76;100.00;101435.16;5076349;28;20107;-45
2022/10/25 08:38:16;;;;;;;43.15;15.15;;;;;;;12.90;100.00;101437.28;5076552;28;20074;-47
2022/10/25 08:40:51;;;;;;;30.67;15.10;;;;;;;12.95;100.00;101435.69;5076658;28;20029;-48
2022/10/25 08:43:43;;;;;;;35.67;14.30;;;;;;;13.09;100.00;101433.53;5075669;28;20045;-47
2022/10/25 08:46:17;;;;;;;38.05;15.23;;;;;;;13.16;100.00;101436.31;5076300;28;20464;-47
2022/10/25 08:48:49;;;;;;;34.45;15.00;;;;;;;13.24;100.00;101440.84;5076330;28;20396;-47
2022/10/25 08:51:28;;;;;;;45.30;14.52;;;;;;;13.29;100.00;101439.28;5075669;28;20036;-48
2022/10/25 08:54:00;;;;;;;32.42;14.35;;;;;;;13.31;100.00;101441.06;5076523;28;20119;-46
2022/10/25 08:56:27;;;;;;;36.15;14.10;;;;;;;13.33;100.00;101444.56;5075817;28;20050;-45
2022/10/25 08:58:59;;;;;;;36.90;14.15;;;;;;;13.38;100.00;101442.16;5076454;28;20052;-47
2022/10/25 09:01:45;;;;;;;33.60;13.10;;;;;;;13.50;100.00;101452.84;5076199;28;20016;-48
2022/10/25 09:04:11;;;;;;;37.40;14.43;;;;;;;13.53;100.00;101456.34;5075361;28;20531;-46
2022/10/25 09:06:45;;;;;;;37.53;13.05;;;;;;;13.62;100.00;101457.47;5076320;28;20028;-47
2022/10/25 09:09:48;;;;;;;28.70;11.82;;;;;;;13.82;100.00;101462.31;5075713;28;20037;-48
2022/10/25 09:12:33;;;;;;;32.72;12.07;;;;;;;13.97;100.00;101461.84;5075272;28;20059;-46
2022/10/25 09:15:15;;;;;;;36.95;12.38;;;;;;;13.88;100.00;101461.56;5076002;28;20028;-49
2022/10/25 09:17:48;;;;;;;26.35;11.75;;;;;;;13.96;100.00;101473.03;5075292;28;20031;-48
2022/10/25 09:20:28;;;;;;;29.65;11.50;;;;;;;14.09;100.00;101475.09;5075816;28;20054;-47
2022/10/25 09:22:59;;;;;;;25.88;10.52;;;;;;;14.06;100.00;101475.03;5075514;28;20422;-45
2022/10/25 09:25:32;;;;;;;32.67;10.45;;;;;;;13.96;100.00;101475.63;5075539;28;20029;-46
2022/10/25 09:28:00;;;;;;;30.88;11.27;;;;;;;13.97;100.00;101479.97;5075443;28;20388;-48
2022/10/25 09:30:28;;;;;;;32.45;10.48;;;;;;;13.96;100.00;101478.22;5075389;28;20028;-48
2022/10/25 09:33:00;;;;;;;28.75;9.57;;;;;;;13.82;100.00;101494.25;5075191;28;20107;-47
2022/10/25 09:35:42;;;;;;;31.83;10.80;;;;;;;13.93;100.00;101488.47;5075763;28;20025;-48
2022/10/25 09:38:22;;;;;;;27.08;10.32;;;;;;;14.06;100.00;101495.75;5075132;28;20491;-48
2022/10/25 09:41:00;;;;;;;27.70;10.75;;;;;;;14.08;100.00;101495.78;5075199;28;20024;-46
2022/10/25 09:43:37;;;;;;;28.08;10.30;;;;;;;14.13;100.00;101491.59;5074888;28;20101;-47
2022/10/25 09:46:11;;;;;;;35.00;11.75;;;;;;;14.30;99.39;101494.63;5074943;28;20020;-48
2022/10/25 09:48:49;;;;;;;33.33;11.15;;;;;;;14.40;99.08;101496.59;5075601;28;20059;-48
2022/10/25 09:51:23;;;;;;;29.90;10.73;;;;;;;14.29;98.98;101496.34;5074766;28;20430;-47
2022/10/25 09:53:50;;;;;;;30.75;10.00;;;;;;;14.32;99.41;101492.94;5074892;28;20024;-49
2022/10/25 09:56:16;;;;;;;29.30;10.65;;;;;;;14.27;98.69;101494.53;5074991;28;20025;-49
2022/10/25 09:58:46;;;;;;;32.30;10.45;;;;;;;14.19;98.72;101504.72;5075227;28;20166;-48
2022/10/25 10:01:24;;;;;;;27.48;10.25;;;;;;;14.21;99.87;101505.63;5074388;28;20380;-48
2022/10/25 10:03:50;;;;;;;25.33;9.43;;;;;;;14.12;100.00;101498.47;5075053;28;20025;-48
2022/10/25 10:06:31;;;;;;;42.70;10.07;;;;;;;14.10;99.98;101507.97;5074657;28;20040;-48
2022/10/25 10:09:01;;;;;;;30.85;10.10;;;;;;;14.08;100.00;101513.94;5074182;28;20468;-46
2022/10/25 10:11:27;;;;;;;27.75;9.27;;;;;;;14.03;100.00;101506.03;5074908;28;20396;-45
2022/10/25 10:13:58;;;;;;;28.88;9.38;;;;;;;13.98;100.00;101513.72;5074450;28;20017;-47
2022/10/25 10:16:31;;;;;;;31.65;9.05;;;;;;;14.02;100.00;101513.78;5075056;28;20040;-45
2022/10/25 10:19:17;;;;;;;36.03;8.77;;;;;;;14.08;100.00;101522.56;5074550;28;20021;-47
2022/10/25 10:21:46;;;;;;;26.97;8.53;;;;;;;14.14;100.00;101519.28;5074305;28;20438;-47
2022/10/25 10:24:21;;;;;;;30.63;9.45;;;;;;;14.18;99.25;101525.41;5074495;28;20508;-48
2022/10/25 10:26:54;;;;;;;30.35;8.60;;;;;;;14.30;98.05;101521.41;5074456;28;20025;-49
2022/10/25 10:29:25;;;;;;;30.63;8.05;;;;;;;14.52;98.00;101521.06;5074079;28;20031;-49
2022/10/25 10:31:52;;;;;;;35.00;8.65;;;;;;;14.62;97.68;101528.25;5074487;28;20033;-48
2022/10/25 10:34:28;;;;;;;28.42;7.97;;;;;;;14.76;97.15;101529.47;5074073;28;20353;-49
2022/10/25 10:37:11;;;;;;;29.55;7.65;;;;;;;14.81;98.21;101527.84;5073956;28;20032;-48
2022/10/25 10:39:48;;;;;;;22.88;7.13;;;;;;;14.71;96.44;101528.47;5074224;28;20024;-48
2022/10/25 10:42:16;;;;;;;24.97;6.80;;;;;;;14.63;95.95;101530.00;5073865;28;20021;-48
2022/10/25 10:45:00;;;;;;;27.48;6.85;;;;;;;14.58;95.68;101529.88;5074169;28;20495;-47
2022/10/25 10:47:30;;;;;;;28.20;7.18;;;;;;;14.62;96.14;101538.63;5074106;28;20367;-49
2022/10/25 10:49:55;;;;;;;24.30;7.18;;;;;;;14.52;96.55;101542.69;5073504;28;20035;-45
2022/10/25 10:52:42;;;;;;;25.80;6.70;;;;;;;14.55;96.76;101536.69;5074254;28;20033;-46
2022/10/25 10:55:27;;;;;;;22.40;6.65;;;;;;;14.63;96.84;101546.44;5073193;28;20033;-48
2022/10/25 10:57:54;;;;;;;24.45;7.28;;;;;;;14.70;95.11;101546.63;5073671;28;20107;-49
2022/10/25 11:00:26;;;;;;;28.52;7.82;;;;;;;14.60;96.05;101540.28;5073862;28;20464;-48
2022/10/25 11:02:52;;;;;;;29.00;7.50;;;;;;;14.56;96.32;101535.88;5073698;28;20585;-48
2022/10/25 11:05:24;;;;;;;33.25;8.13;;;;;;;14.54;97.08;101534.94;5073188;28;20112;-46
2022/10/25 11:08:19;;;;;;;30.45;8.02;;;;;;;14.75;96.81;101534.63;5073809;28;20031;-48
2022/10/25 11:10:44;;;;;;;29.60;8.10;;;;;;;15.06;94.89;101531.00;5064158;28;20037;-48
2022/10/25 11:13:18;;;;;;;24.85;7.03;;;;;;;15.29;94.16;101535.81;5073450;28;20027;-47
2022/10/25 11:16:22;;;;;;;30.98;7.70;;;;;;;15.47;93.34;101533.59;5073651;28;20024;-49